Time;durP1;ratioP1;P1;durP2;ratioP2;P2;SDS_P1;SDS_P2;PMS_P1;PMS_P2;Temp;Humidity;BMP_temperature;BMP_pressure;BME280_temperature;BME280_humidity;BME280_pressure;Samples;Min_cycle;Max_cycle;Signal;HPM_P1;HPM_P2
2023/04/06 00:01:08;;;;;;;21.85;16.55;;;13.70;65.80;;;;;;5015310;28;20018;-71
2023/04/06 00:03:34;;;;;;;21.58;15.75;;;13.70;65.90;;;;;;5015327;28;20034;-71
2023/04/06 00:05:59;;;;;;;22.75;16.02;;;13.70;66.30;;;;;;5015288;28;20040;-71
2023/04/06 00:08:26;;;;;;;20.90;15.00;;;13.70;65.80;;;;;;5015197;28;20022;-71
2023/04/06 00:10:52;;;;;;;20.52;14.85;;;13.60;66.70;;;;;;5015259;28;20025;-70
2023/04/06 00:13:17;;;;;;;23.42;16.15;;;13.60;66.40;;;;;;5015156;28;20057;-71
2023/04/06 00:15:43;;;;;;;19.23;14.50;;;13.70;66.40;;;;;;5014505;28;20030;-71
2023/04/06 00:18:09;;;;;;;24.98;15.90;;;13.60;66.20;;;;;;5014975;28;20037;-70
2023/04/06 00:20:34;;;;;;;23.77;15.18;;;13.60;66.20;;;;;;5014981;28;20029;-71
2023/04/06 00:23:00;;;;;;;20.80;15.25;;;13.60;66.20;;;;;;5015033;28;20723;-70
2023/04/06 00:25:26;;;;;;;21.85;15.48;;;13.60;66.20;;;;;;5014922;28;20034;-71
2023/04/06 00:27:51;;;;;;;20.38;14.60;;;13.60;66.50;;;;;;5014713;28;20490;-71
2023/04/06 00:30:17;;;;;;;19.92;14.57;;;13.60;66.40;;;;;;5014646;28;20387;-71
2023/04/06 00:32:43;;;;;;;21.63;15.82;;;13.60;66.40;;;;;;5014681;28;20120;-71
2023/04/06 00:35:09;;;;;;;20.17;15.40;;;13.60;66.50;;;;;;5014822;28;20037;-70
2023/04/06 00:37:34;;;;;;;21.50;14.80;;;13.60;66.30;;;;;;5014861;28;20033;-71
2023/04/06 00:40:00;;;;;;;21.02;15.02;;;13.60;66.40;;;;;;5013099;28;20169;-70
2023/04/06 00:42:26;;;;;;;21.58;15.10;;;13.50;66.70;;;;;;5014113;28;20104;-71
2023/04/06 00:44:53;;;;;;;21.33;15.40;;;13.50;66.60;;;;;;5013445;28;20032;-70
2023/04/06 00:47:19;;;;;;;22.88;15.30;;;13.50;66.50;;;;;;5014678;28;20033;-71
2023/04/06 00:49:45;;;;;;;19.77;14.52;;;13.50;66.60;;;;;;5014499;28;20026;-71
2023/04/06 00:52:10;;;;;;;21.27;14.25;;;13.50;66.60;;;;;;5014102;28;20480;-71
2023/04/06 00:54:36;;;;;;;17.83;13.80;;;13.40;66.60;;;;;;5014153;28;20101;-70
2023/04/06 00:57:01;;;;;;;20.60;14.57;;;13.40;66.80;;;;;;5014160;28;20030;-70
2023/04/06 00:59:28;;;;;;;21.27;14.45;;;13.50;66.50;;;;;;5014165;28;20053;-70
2023/04/06 01:01:54;;;;;;;21.50;14.45;;;13.40;66.30;;;;;;5014236;28;20037;-71
2023/04/06 01:04:22;;;;;;;17.25;14.07;;;13.40;66.40;;;;;;5014272;28;20026;-70
2023/04/06 01:06:48;;;;;;;20.63;13.85;;;13.40;66.50;;;;;;5013904;28;20077;-71
2023/04/06 01:09:14;;;;;;;20.33;14.52;;;13.40;66.60;;;;;;5014388;28;20102;-71
2023/04/06 01:11:40;;;;;;;18.83;14.35;;;13.40;66.60;;;;;;5014126;28;20109;-71
2023/04/06 01:14:05;;;;;;;18.17;14.40;;;13.40;66.70;;;;;;5013837;28;20475;-70
2023/04/06 01:16:31;;;;;;;21.63;15.18;;;13.40;66.80;;;;;;5013707;28;20548;-71
2023/04/06 01:18:57;;;;;;;20.63;14.88;;;13.40;66.70;;;;;;5013976;28;20034;-71
2023/04/06 01:21:22;;;;;;;19.00;13.85;;;13.30;66.60;;;;;;5013836;28;20105;-70
2023/04/06 01:23:48;;;;;;;21.67;14.85;;;13.30;66.80;;;;;;5013851;28;20057;-70
2023/04/06 01:26:14;;;;;;;21.83;15.43;;;13.30;66.90;;;;;;5013663;28;20034;-70
2023/04/06 01:28:40;;;;;;;21.13;14.93;;;13.30;66.90;;;;;;5013468;28;20221;-70
2023/04/06 01:31:09;;;;;;;18.48;14.90;;;13.30;66.80;;;;;;5013568;28;20032;-70
2023/04/06 01:33:35;;;;;;;20.20;14.30;;;13.30;67.00;;;;;;5013853;28;20084;-70
2023/04/06 01:36:01;;;;;;;21.67;15.23;;;13.20;67.10;;;;;;5013462;28;20021;-70
2023/04/06 01:38:26;;;;;;;17.75;13.43;;;13.30;67.00;;;;;;5013639;28;20033;-70
2023/04/06 01:40:55;;;;;;;21.10;14.52;;;13.20;67.10;;;;;;5013474;28;20056;-70
2023/04/06 01:43:21;;;;;;;20.23;14.55;;;13.20;67.20;;;;;;5013119;28;20022;-70
2023/04/06 01:45:47;;;;;;;21.30;14.95;;;13.20;67.40;;;;;;5013295;28;20149;-70
2023/04/06 01:48:12;;;;;;;19.92;14.40;;;13.20;67.20;;;;;;5013471;28;20109;-70
2023/04/06 01:50:38;;;;;;;20.35;14.82;;;13.20;67.40;;;;;;5013307;28;20384;-70
2023/04/06 01:53:03;;;;;;;23.48;14.80;;;13.10;67.80;;;;;;5013255;28;20038;-70
2023/04/06 01:55:29;;;;;;;24.70;14.60;;;13.10;67.10;;;;;;5013478;28;20045;-70
2023/04/06 01:57:55;;;;;;;23.65;14.90;;;13.10;67.10;;;;;;5012918;28;20029;-70
2023/04/06 02:00:20;;;;;;;19.58;14.05;;;13.10;67.10;;;;;;5013271;28;20533;-70
2023/04/06 02:02:46;;;;;;;21.00;13.85;;;13.00;67.00;;;;;;5013231;28;20476;-70
2023/04/06 02:05:11;;;;;;;22.00;14.60;;;13.00;67.00;;;;;;5013092;28;20061;-71
2023/04/06 02:07:37;;;;;;;20.33;14.20;;;13.00;66.80;;;;;;5012811;28;20018;-70
2023/04/06 02:10:12;;;;;;;20.60;14.30;;;13.10;66.90;;;;;;5012987;28;20079;-70
2023/04/06 02:12:37;;;;;;;24.92;15.25;;;13.00;66.90;;;;;;5012690;28;20060;-70
2023/04/06 02:15:03;;;;;;;22.63;14.77;;;13.00;66.90;;;;;;5012906;28;20363;-70
2023/04/06 02:17:29;;;;;;;20.15;14.20;;;13.00;66.90;;;;;;5012773;28;20073;-70
2023/04/06 02:19:54;;;;;;;19.15;14.52;;;13.00;66.90;;;;;;5013064;28;20418;-70
2023/04/06 02:22:20;;;;;;;23.10;15.48;;;13.00;67.00;;;;;;5012877;28;20466;-70
2023/04/06 02:24:46;;;;;;;18.92;14.48;;;13.00;67.00;;;;;;5013110;28;20037;-70
2023/04/06 02:27:13;;;;;;;21.50;13.95;;;12.90;67.00;;;;;;5012347;28;20026;-70
2023/04/06 02:29:39;;;;;;;21.60;14.80;;;13.00;67.40;;;;;;5013069;28;20033;-70
2023/04/06 02:32:05;;;;;;;20.90;15.23;;;12.90;67.20;;;;;;5012574;28;20022;-70
2023/04/06 02:34:30;;;;;;;22.25;15.07;;;12.90;67.20;;;;;;5012780;28;20495;-70
2023/04/06 02:36:56;;;;;;;20.23;14.77;;;12.90;67.30;;;;;;5012680;28;20022;-70
2023/04/06 02:39:22;;;;;;;20.45;14.43;;;12.90;67.90;;;;;;5012888;28;20032;-70
2023/04/06 02:41:48;;;;;;;20.17;15.13;;;12.90;67.50;;;;;;5012431;28;20027;-70
2023/04/06 02:44:13;;;;;;;22.33;15.80;;;12.80;67.40;;;;;;5012790;28;20088;-71
2023/04/06 02:46:39;;;;;;;22.33;15.05;;;12.80;67.50;;;;;;5012704;28;20372;-70
2023/04/06 02:49:05;;;;;;;20.80;14.30;;;12.80;67.70;;;;;;5012463;28;20034;-70
2023/04/06 02:51:31;;;;;;;19.58;14.57;;;12.80;67.60;;;;;;5012700;28;20380;-70
2023/04/06 02:53:56;;;;;;;21.98;15.75;;;12.80;67.70;;;;;;5012372;28;20085;-70
2023/04/06 02:56:22;;;;;;;25.00;14.82;;;12.80;67.60;;;;;;5012305;28;20030;-70
2023/04/06 02:58:48;;;;;;;20.38;14.73;;;12.80;67.70;;;;;;5012292;28;20053;-71
2023/04/06 03:01:13;;;;;;;21.85;14.77;;;12.80;67.70;;;;;;5012682;28;20034;-71
2023/04/06 03:03:39;;;;;;;22.75;15.73;;;12.80;68.00;;;;;;5012525;28;20482;-70
2023/04/06 03:06:05;;;;;;;19.20;14.45;;;12.80;68.10;;;;;;5012458;28;20101;-70
2023/04/06 03:08:31;;;;;;;23.92;16.40;;;12.80;67.90;;;;;;5012330;28;20014;-70
2023/04/06 03:10:56;;;;;;;20.85;14.85;;;12.80;68.10;;;;;;5012579;28;20034;-69
2023/04/06 03:13:22;;;;;;;19.85;14.82;;;12.80;68.40;;;;;;5012333;28;20483;-70
2023/04/06 03:15:47;;;;;;;23.58;15.00;;;12.80;68.30;;;;;;5012490;28;20395;-71
2023/04/06 03:18:13;;;;;;;18.40;15.15;;;12.80;68.70;;;;;;5012042;28;20042;-70
2023/04/06 03:20:39;;;;;;;20.42;15.00;;;12.70;68.70;;;;;;5015648;28;20029;-70
2023/04/06 03:23:04;;;;;;;24.55;16.63;;;12.70;68.80;;;;;;5015915;28;20022;-70
2023/04/06 03:25:30;;;;;;;21.40;15.65;;;12.70;68.90;;;;;;5015876;28;20030;-70
2023/04/06 03:27:56;;;;;;;21.38;15.73;;;12.60;69.00;;;;;;5015930;28;20037;-70
2023/04/06 03:30:22;;;;;;;23.15;16.05;;;12.60;69.00;;;;;;5015736;28;20101;-70
2023/04/06 03:32:47;;;;;;;20.67;14.60;;;12.70;69.10;;;;;;5015604;28;20040;-70
2023/04/06 03:35:13;;;;;;;21.40;14.85;;;12.60;69.40;;;;;;5016180;28;20030;-70
2023/04/06 03:37:38;;;;;;;22.15;15.77;;;12.70;69.40;;;;;;5015694;28;20040;-70
2023/04/06 03:40:06;;;;;;;22.30;16.08;;;12.60;69.60;;;;;;5015869;28;20026;-70
2023/04/06 03:42:32;;;;;;;21.90;16.02;;;12.60;69.80;;;;;;5015721;28;20061;-70
2023/04/06 03:44:58;;;;;;;21.92;16.02;;;12.50;70.00;;;;;;5015584;28;20061;-70
2023/04/06 03:47:24;;;;;;;20.63;15.93;;;12.60;70.00;;;;;;5015666;28;20030;-70
2023/04/06 03:49:50;;;;;;;21.13;15.48;;;12.50;70.00;;;;;;5015607;28;20415;-70
2023/04/06 03:52:15;;;;;;;19.63;15.77;;;12.50;70.30;;;;;;5015237;28;20045;-70
2023/04/06 03:54:41;;;;;;;21.83;15.18;;;12.50;70.20;;;;;;5015749;28;20025;-70
2023/04/06 03:57:07;;;;;;;21.83;16.40;;;12.50;70.50;;;;;;5015454;28;20041;-70
2023/04/06 03:59:32;;;;;;;21.27;15.80;;;12.50;70.60;;;;;;5015449;28;20464;-70
2023/04/06 04:01:58;;;;;;;21.45;16.23;;;12.50;70.90;;;;;;5015478;28;20030;-70
2023/04/06 04:04:24;;;;;;;23.38;16.02;;;12.50;71.10;;;;;;5015198;28;20033;-70
2023/04/06 04:06:49;;;;;;;21.92;15.43;;;12.50;71.00;;;;;;5015163;28;20475;-71
2023/04/06 04:09:15;;;;;;;23.10;16.13;;;12.50;71.10;;;;;;5015225;28;20101;-70
2023/04/06 04:11:41;;;;;;;22.90;16.48;;;12.50;71.20;;;;;;5015299;28;20026;-70
2023/04/06 04:14:06;;;;;;;20.02;15.38;;;12.50;71.50;;;;;;4997443;28;20037;-70
2023/04/06 04:16:32;;;;;;;21.27;15.82;;;12.50;71.60;;;;;;5014822;28;20108;-70
2023/04/06 04:18:58;;;;;;;22.98;17.15;;;12.50;71.60;;;;;;5015079;28;20041;-70
2023/04/06 04:21:25;;;;;;;23.88;16.73;;;12.40;71.70;;;;;;5015210;28;20024;-70
2023/04/06 04:23:52;;;;;;;26.27;16.90;;;12.50;71.80;;;;;;5015170;28;20064;-70
2023/04/06 04:26:18;;;;;;;22.73;17.42;;;12.40;71.90;;;;;;5015028;28;20025;-70
2023/04/06 04:28:44;;;;;;;22.75;18.15;;;12.40;72.10;;;;;;5014783;28;20474;-70
2023/04/06 04:31:10;;;;;;;22.92;16.98;;;12.40;72.20;;;;;;5014297;28;20475;-70
2023/04/06 04:33:35;;;;;;;21.08;16.85;;;12.30;72.40;;;;;;5015006;28;20037;-70
2023/04/06 04:36:01;;;;;;;22.75;17.67;;;12.30;72.60;;;;;;5014584;28;20494;-69
2023/04/06 04:38:26;;;;;;;24.52;18.05;;;12.20;73.50;;;;;;5014771;28;20026;-70
2023/04/06 04:40:52;;;;;;;23.40;17.80;;;12.20;73.10;;;;;;5014746;28;20464;-70
2023/04/06 04:43:18;;;;;;;23.88;18.35;;;12.20;73.30;;;;;;5014411;28;20038;-70
2023/04/06 04:45:43;;;;;;;23.60;16.88;;;12.10;73.60;;;;;;5014681;28;20026;-69
2023/04/06 04:48:09;;;;;;;21.92;17.60;;;12.10;73.60;;;;;;5014517;28;20030;-70
2023/04/06 04:50:34;;;;;;;24.73;17.70;;;12.10;73.80;;;;;;5014392;28;20363;-70
2023/04/06 04:53:00;;;;;;;24.67;17.50;;;12.10;73.90;;;;;;5014445;28;20471;-70
2023/04/06 04:55:25;;;;;;;25.42;18.77;;;12.10;74.20;;;;;;5014272;28;20022;-70
2023/04/06 04:57:51;;;;;;;23.45;17.73;;;12.10;74.20;;;;;;5014869;28;20374;-70
2023/04/06 05:00:17;;;;;;;26.90;19.05;;;12.10;74.40;;;;;;5012935;28;20030;-71
2023/04/06 05:02:42;;;;;;;24.55;19.52;;;12.10;74.70;;;;;;5006637;28;20030;-70
2023/04/06 05:05:08;;;;;;;25.27;18.67;;;12.10;74.90;;;;;;4995902;28;20018;-70
2023/04/06 05:07:34;;;;;;;30.25;19.50;;;12.10;75.20;;;;;;5012562;28;20018;-69
2023/04/06 05:10:00;;;;;;;24.73;18.92;;;12.10;75.50;;;;;;5008906;28;20116;-70
2023/04/06 05:12:27;;;;;;;27.58;19.52;;;12.10;75.90;;;;;;5013936;28;20486;-70
2023/04/06 05:14:53;;;;;;;24.27;18.80;;;12.00;76.30;;;;;;5013543;28;20021;-70
2023/04/06 05:17:19;;;;;;;25.45;19.80;;;12.10;76.50;;;;;;5013732;28;20045;-70
2023/04/06 05:19:45;;;;;;;24.42;19.60;;;12.10;76.80;;;;;;5013635;28;20378;-70
2023/04/06 05:22:10;;;;;;;22.55;18.17;;;12.00;76.90;;;;;;5013993;28;20018;-70
2023/04/06 05:24:36;;;;;;;23.95;20.17;;;12.00;77.10;;;;;;5012311;28;20034;-70
2023/04/06 05:27:02;;;;;;;24.48;20.40;;;12.00;77.30;;;;;;5013294;28;20464;-70
2023/04/06 05:29:28;;;;;;;25.77;18.65;;;12.00;77.60;;;;;;5013356;28;20041;-70
2023/04/06 05:31:54;;;;;;;24.70;20.02;;;12.00;77.70;;;;;;5012348;28;20171;-70
2023/04/06 05:34:20;;;;;;;26.13;20.08;;;12.00;77.90;;;;;;5013235;28;20542;-69
2023/04/06 05:36:45;;;;;;;27.00;21.15;;;12.00;77.90;;;;;;5012364;28;20030;-69
2023/04/06 05:39:12;;;;;;;23.88;19.20;;;12.00;78.30;;;;;;5013377;28;20030;-70
2023/04/06 05:41:37;;;;;;;24.88;20.60;;;12.00;78.50;;;;;;5013251;28;20026;-70
2023/04/06 05:44:03;;;;;;;23.20;20.20;;;12.00;79.10;;;;;;5013201;28;20030;-70
2023/04/06 05:46:29;;;;;;;25.67;20.48;;;12.00;79.50;;;;;;5013584;28;20042;-70
2023/04/06 05:48:55;;;;;;;26.00;20.88;;;12.00;79.70;;;;;;5013170;28;20022;-70
2023/04/06 05:51:20;;;;;;;27.30;21.35;;;12.10;80.00;;;;;;5012522;28;20467;-70
2023/04/06 05:53:46;;;;;;;32.42;24.38;;;12.00;80.20;;;;;;5010746;28;20049;-70
2023/04/06 05:56:12;;;;;;;28.80;22.77;;;12.00;80.70;;;;;;5011214;28;20060;-69
2023/04/06 05:58:37;;;;;;;25.38;20.58;;;12.00;81.20;;;;;;5012734;28;20025;-70
2023/04/06 06:01:04;;;;;;;30.42;21.80;;;12.00;81.10;;;;;;5011587;28;20487;-70
2023/04/06 06:03:30;;;;;;;24.45;21.38;;;12.00;81.60;;;;;;5009300;28;20022;-70
2023/04/06 06:06:03;;;;;;;26.92;21.42;;;12.00;81.50;;;;;;5012654;28;20060;-70
2023/04/06 06:08:29;;;;;;;23.95;20.08;;;12.10;81.90;;;;;;5013209;28;20030;-70
2023/04/06 06:10:55;;;;;;;24.85;21.73;;;12.10;82.20;;;;;;5013118;28;20041;-70
2023/04/06 06:13:21;;;;;;;26.95;21.20;;;12.10;82.90;;;;;;5011701;28;20414;-70
2023/04/06 06:15:47;;;;;;;26.23;21.55;;;12.00;83.90;;;;;;5011661;28;20022;-70
2023/04/06 06:18:12;;;;;;;32.78;21.48;;;12.00;83.40;;;;;;5012023;28;20129;-70
2023/04/06 06:20:39;;;;;;;29.30;22.13;;;12.00;83.60;;;;;;5013145;28;20049;-70
2023/04/06 06:23:05;;;;;;;24.60;21.77;;;12.10;83.70;;;;;;5011104;28;20076;-70
2023/04/06 06:25:30;;;;;;;25.45;21.80;;;12.10;84.10;;;;;;5012752;28;20040;-69
2023/04/06 06:27:56;;;;;;;28.23;21.60;;;12.10;84.60;;;;;;5012721;28;20471;-70
2023/04/06 06:30:22;;;;;;;26.48;21.05;;;12.10;85.30;;;;;;5012827;28;20117;-70
2023/04/06 06:32:48;;;;;;;30.05;21.45;;;12.10;85.50;;;;;;5011942;28;20129;-70
2023/04/06 06:35:14;;;;;;;50.78;37.05;;;12.00;85.90;;;;;;5012058;28;20056;-70
2023/04/06 06:37:39;;;;;;;47.30;35.88;;;12.00;86.20;;;;;;5012391;28;20496;-70
2023/04/06 06:40:06;;;;;;;33.03;27.85;;;12.00;86.50;;;;;;5010741;28;20444;-70
2023/04/06 06:42:31;;;;;;;30.65;24.75;;;12.00;87.20;;;;;;5012697;28;20463;-70
2023/04/06 06:44:57;;;;;;;25.00;21.98;;;12.00;87.30;;;;;;5011406;28;20034;-70
2023/04/06 06:47:22;;;;;;;26.65;20.63;;;12.00;88.20;;;;;;5009825;28;20121;-70
2023/04/06 06:49:48;;;;;;;26.60;20.73;;;12.00;88.70;;;;;;5014187;28;20037;-70
2023/04/06 06:52:14;;;;;;;25.75;21.23;;;12.00;88.80;;;;;;5026670;28;20022;-70
2023/04/06 06:54:40;;;;;;;26.27;20.77;;;12.00;89.50;;;;;;5013875;28;20037;-70
2023/04/06 06:57:05;;;;;;;24.02;21.20;;;12.00;89.70;;;;;;5014908;28;20026;-70
2023/04/06 06:59:31;;;;;;;28.13;22.05;;;12.00;89.40;;;;;;5016463;28;20459;-70
2023/04/06 07:01:56;;;;;;;25.67;21.23;;;12.10;89.50;;;;;;5015922;28;20369;-70
2023/04/06 07:04:22;;;;;;;23.77;20.02;;;12.00;89.40;;;;;;5016439;28;20037;-70
2023/04/06 07:06:47;;;;;;;22.50;18.35;;;12.10;89.70;;;;;;5012742;28;20041;-70
2023/04/06 07:09:13;;;;;;;21.17;16.88;;;12.10;90.10;;;;;;5010197;28;20547;-69
2023/04/06 07:11:39;;;;;;;21.45;17.98;;;12.10;89.00;;;;;;5020612;28;20038;-69
2023/04/06 07:14:05;;;;;;;23.42;17.33;;;12.10;90.20;;;;;;5012605;28;20120;-70
2023/04/06 07:16:30;;;;;;;21.83;17.42;;;12.10;90.20;;;;;;5015531;28;20511;-70
2023/04/06 07:18:56;;;;;;;20.58;15.65;;;12.10;90.20;;;;;;5016087;28;20045;-70
2023/04/06 07:21:22;;;;;;;16.73;14.45;;;12.20;90.20;;;;;;5016206;28;20112;-70
2023/04/06 07:23:47;;;;;;;19.33;14.38;;;12.10;89.80;;;;;;5012224;28;20025;-70
2023/04/06 07:26:13;;;;;;;17.67;13.68;;;12.20;90.00;;;;;;5000336;28;20029;-69
2023/04/06 07:28:39;;;;;;;16.58;13.15;;;12.20;90.00;;;;;;5014918;28;20350;-70
2023/04/06 07:31:05;;;;;;;14.75;11.38;;;12.20;90.20;;;;;;5018015;28;20030;-69
2023/04/06 07:33:31;;;;;;;14.45;11.70;;;12.30;90.40;;;;;;5023087;28;20037;-70
2023/04/06 07:35:58;;;;;;;16.40;12.57;;;12.30;90.80;;;;;;5015790;28;20379;-70
2023/04/06 07:38:23;;;;;;;19.90;12.02;;;12.40;90.80;;;;;;5015788;28;20018;-70
2023/04/06 07:40:49;;;;;;;17.23;12.07;;;12.40;91.20;;;;;;5016369;28;20032;-70
2023/04/06 07:43:16;;;;;;;15.93;12.10;;;12.50;91.00;;;;;;5018041;28;20030;-69
2023/04/06 07:45:41;;;;;;;14.25;12.05;;;12.50;90.40;;;;;;5014601;28;20097;-70
2023/04/06 07:48:07;;;;;;;11.52;10.32;;;12.50;91.20;;;;;;5015385;28;20541;-70
2023/04/06 07:50:32;;;;;;;12.68;10.27;;;12.50;91.40;;;;;;5031141;28;20041;-70
2023/04/06 07:52:58;;;;;;;12.02;9.30;;;12.50;91.40;;;;;;5015585;28;20030;-70
2023/04/06 07:55:24;;;;;;;12.63;7.95;;;12.50;91.00;;;;;;5013382;28;20052;-70
2023/04/06 07:57:50;;;;;;;9.02;5.70;;;12.60;91.00;;;;;;4997242;28;20026;-69
2023/04/06 08:00:16;;;;;;;8.90;6.38;;;12.70;90.20;;;;;;5019596;28;20026;-70
2023/04/06 08:02:41;;;;;;;8.57;7.20;;;12.90;89.50;;;;;;5010011;28;20029;-70
2023/04/06 08:05:07;;;;;;;9.27;8.02;;;12.90;90.30;;;;;;4999960;28;20472;-70
2023/04/06 08:07:33;;;;;;;8.52;6.20;;;12.80;90.60;;;;;;5011641;28;20407;-70
2023/04/06 08:09:58;;;;;;;13.55;7.35;;;12.90;90.20;;;;;;5020245;28;20022;-70
2023/04/06 08:12:24;;;;;;;6.32;4.78;;;12.90;90.50;;;;;;5014866;28;20423;-69
2023/04/06 08:14:50;;;;;;;13.45;8.38;;;13.00;90.40;;;;;;5003855;28;20041;-70
2023/04/06 08:17:16;;;;;;;10.55;7.00;;;13.00;90.20;;;;;;5015217;28;20038;-70
2023/04/06 08:19:45;;;;;;;9.35;4.45;;;13.00;90.60;;;;;;5019020;28;20029;-70
2023/04/06 08:22:11;;;;;;;7.55;3.30;;;13.10;90.20;;;;;;5012954;28;20493;-70
2023/04/06 08:24:37;;;;;;;7.55;3.83;;;13.20;90.00;;;;;;5013378;28;20026;-70
2023/04/06 08:27:02;;;;;;;16.48;5.05;;;13.30;89.90;;;;;;5018242;28;20467;-70
2023/04/06 08:29:28;;;;;;;8.63;6.72;;;13.30;90.00;;;;;;5014786;28;20467;-70
2023/04/06 08:31:54;;;;;;;6.50;4.75;;;13.20;90.40;;;;;;5011744;28;20037;-69
2023/04/06 08:34:21;;;;;;;7.43;5.47;;;13.20;90.50;;;;;;5009844;28;20041;-70
2023/04/06 08:36:47;;;;;;;6.18;4.70;;;13.30;90.80;;;;;;5008717;28;20030;-70
2023/04/06 08:39:12;;;;;;;7.22;3.95;;;13.30;90.70;;;;;;5025558;28;20394;-70
2023/04/06 08:41:41;;;;;;;7.45;4.75;;;13.30;90.80;;;;;;5012797;28;20030;-70
2023/04/06 08:44:06;;;;;;;6.13;3.60;;;13.30;90.90;;;;;;5004566;28;20117;-69
2023/04/06 08:46:32;;;;;;;6.47;4.20;;;13.40;90.70;;;;;;4989976;28;20145;-70
2023/04/06 08:49:02;;;;;;;7.93;4.13;;;13.50;90.70;;;;;;5009788;28;20042;-68
2023/04/06 08:51:30;;;;;;;3.67;2.30;;;13.50;90.80;;;;;;5020994;28;20017;-68
2023/04/06 08:53:57;;;;;;;7.10;3.75;;;13.60;90.80;;;;;;5008267;28;20096;-68
2023/04/06 08:56:27;;;;;;;8.05;4.43;;;13.60;90.80;;;;;;5016034;28;20029;-68
2023/04/06 08:58:54;;;;;;;7.70;4.20;;;13.60;91.10;;;;;;5011889;28;20034;-68
2023/04/06 09:01:25;;;;;;;3.60;2.70;;;13.50;91.20;;;;;;4998597;28;20127;-69
2023/04/06 09:03:54;;;;;;;5.82;2.15;;;13.60;91.20;;;;;;5011831;28;20017;-68
2023/04/06 09:06:19;;;;;;;6.95;3.72;;;13.70;91.20;;;;;;5008502;28;20030;-69
2023/04/06 09:08:45;;;;;;;10.85;2.95;;;13.70;91.10;;;;;;5011645;28;20033;-69
2023/04/06 09:11:11;;;;;;;3.47;2.90;;;13.80;91.10;;;;;;5009548;28;20109;-69
2023/04/06 09:13:51;;;;;;;7.43;2.72;;;13.80;91.10;;;;;;5009223;28;20387;-69
2023/04/06 09:16:17;;;;;;;5.18;2.40;;;13.90;91.00;;;;;;5010026;28;20597;-69
2023/04/06 09:18:43;;;;;;;9.70;4.07;;;13.90;91.10;;;;;;5011992;28;20034;-69
2023/04/06 09:21:10;;;;;;;4.38;2.35;;;13.90;90.90;;;;;;5009386;28;20037;-68
2023/04/06 09:23:36;;;;;;;5.97;2.38;;;14.00;90.80;;;;;;5019345;28;20483;-69
2023/04/06 09:26:10;;;;;;;7.18;4.47;;;14.00;90.90;;;;;;5006385;28;20018;-69
2023/04/06 09:28:51;;;;;;;7.32;2.08;;;14.10;90.90;;;;;;5011829;28;20490;-69
2023/04/06 09:31:32;;;;;;;5.72;3.45;;;14.20;90.70;;;;;;5010573;28;20037;-70
2023/04/06 09:34:00;;;;;;;5.88;3.00;;;14.20;90.70;;;;;;5011777;28;20038;-68
2023/04/06 09:36:41;;;;;;;9.93;3.00;;;14.20;90.60;;;;;;5009711;28;20022;-68
2023/04/06 09:39:07;;;;;;;6.75;2.67;;;14.20;90.70;;;;;;5015847;28;20125;-68
2023/04/06 09:41:35;;;;;;;7.07;3.85;;;14.20;90.60;;;;;;5018600;28;20083;-68
2023/04/06 09:44:03;;;;;;;12.10;3.15;;;14.20;90.80;;;;;;5017489;28;20037;-67
2023/04/06 09:46:33;;;;;;;8.27;3.13;;;14.20;90.80;;;;;;5011841;28;20037;-67
2023/04/06 09:49:00;;;;;;;8.25;2.70;;;14.20;91.10;;;;;;5011469;28;20105;-68
2023/04/06 09:51:29;;;;;;;12.50;3.88;;;14.30;90.80;;;;;;5009777;28;20022;-67
2023/04/06 09:54:00;;;;;;;7.32;3.08;;;14.30;90.60;;;;;;5009148;28;20156;-66
2023/04/06 09:56:30;;;;;;;4.95;2.42;;;14.30;90.80;;;;;;5001204;28;20463;-68
2023/04/06 09:59:04;;;;;;;6.80;3.00;;;14.40;90.70;;;;;;5011359;28;20091;-68
2023/04/06 10:01:33;;;;;;;10.23;2.80;;;14.40;90.80;;;;;;5008625;28;20613;-67
2023/04/06 10:04:08;;;;;;;8.63;2.80;;;14.30;90.60;;;;;;5002116;28;20426;-68
2023/04/06 10:06:35;;;;;;;9.73;2.92;;;14.40;90.70;;;;;;5001024;28;20053;-68
2023/04/06 10:09:04;;;;;;;7.53;2.80;;;14.50;90.80;;;;;;5008654;28;20112;-67
2023/04/06 10:11:30;;;;;;;8.18;3.30;;;14.50;90.90;;;;;;5014758;28;20029;-67
2023/04/06 10:13:57;;;;;;;9.43;3.05;;;14.60;90.80;;;;;;5009266;28;20038;-66
2023/04/06 10:16:24;;;;;;;10.60;4.45;;;14.60;90.90;;;;;;5010256;28;20030;-66
2023/04/06 10:18:56;;;;;;;11.00;3.40;;;14.60;90.90;;;;;;5007034;28;20088;-67
2023/04/06 10:21:26;;;;;;;7.50;3.72;;;14.60;90.90;;;;;;5011393;28;20530;-68
2023/04/06 10:24:00;;;;;;;11.63;4.28;;;14.60;91.10;;;;;;5003975;28;20120;-68
2023/04/06 10:26:26;;;;;;;9.52;3.67;;;14.60;91.10;;;;;;5013558;28;20068;-68
2023/04/06 10:28:52;;;;;;;7.57;3.63;;;14.60;91.10;;;;;;5007554;28;20026;-68
2023/04/06 10:31:28;;;;;;;9.32;4.35;;;14.70;91.10;;;;;;5011614;28;20026;-68
2023/04/06 10:33:58;;;;;;;9.70;4.78;;;14.70;91.10;;;;;;5006461;28;20550;-68
2023/04/06 10:36:26;;;;;;;6.60;3.97;;;14.70;91.30;;;;;;5009863;28;20053;-68
2023/04/06 10:39:06;;;;;;;11.65;6.72;;;14.70;91.50;;;;;;5002002;28;20018;-67
2023/04/06 10:41:35;;;;;;;11.80;7.10;;;14.70;93.00;;;;;;5007393;28;20033;-67
2023/04/06 10:44:02;;;;;;;14.50;4.95;;;14.70;92.70;;;;;;5000757;28;20274;-68
2023/04/06 10:46:32;;;;;;;8.95;5.28;;;14.80;93.00;;;;;;4989440;28;20080;-68
2023/04/06 10:49:09;;;;;;;6.40;3.88;;;14.80;93.00;;;;;;5009782;28;20117;-69
2023/04/06 10:51:39;;;;;;;9.13;4.55;;;14.80;93.60;;;;;;5002177;28;20443;-68
2023/04/06 10:54:06;;;;;;;8.90;5.10;;;14.90;94.10;;;;;;4999452;28;20100;-67
2023/04/06 10:56:36;;;;;;;9.38;5.10;;;15.00;94.10;;;;;;5007168;28;20034;-68
2023/04/06 10:59:01;;;;;;;9.82;6.60;;;15.00;94.40;;;;;;5007146;28;20033;-69
2023/04/06 11:01:27;;;;;;;7.10;4.80;;;14.90;94.30;;;;;;5016388;28;20379;-70
2023/04/06 11:03:55;;;;;;;10.50;5.80;;;15.00;94.90;;;;;;5008923;28;20041;-68
2023/04/06 11:06:26;;;;;;;10.13;7.22;;;14.90;94.90;;;;;;5009112;28;20017;-70
2023/04/06 11:08:53;;;;;;;8.63;5.85;;;14.90;94.60;;;;;;5005844;28;20029;-70
2023/04/06 11:11:20;;;;;;;5.90;4.47;;;14.90;94.90;;;;;;5009817;28;20029;-70
2023/04/06 11:13:50;;;;;;;10.15;5.45;;;15.00;94.80;;;;;;5005453;28;20730;-69
2023/04/06 11:16:21;;;;;;;14.80;5.68;;;15.00;94.40;;;;;;5005596;28;20026;-69
2023/04/06 11:19:09;;;;;;;8.07;5.32;;;15.00;94.40;;;;;;5009869;28;20029;-70
2023/04/06 11:21:48;;;;;;;8.18;3.90;;;15.00;94.20;;;;;;5008723;28;20447;-70
2023/04/06 11:24:16;;;;;;;7.55;4.18;;;15.00;94.60;;;;;;5007343;28;20554;-69
2023/04/06 11:26:47;;;;;;;6.82;3.40;;;15.10;94.40;;;;;;5013841;28;20053;-69
2023/04/06 11:29:13;;;;;;;5.75;3.88;;;15.10;94.10;;;;;;5006370;28;20030;-68
2023/04/06 11:32:03;;;;;;;4.60;3.13;;;15.10;93.90;;;;;;5011029;28;20410;-68
2023/04/06 11:34:32;;;;;;;6.85;4.05;;;15.20;93.50;;;;;;5005798;28;20046;-68
2023/04/06 11:36:59;;;;;;;17.15;5.45;;;15.20;93.60;;;;;;5005534;28;20168;-68
2023/04/06 11:39:27;;;;;;;7.78;3.05;;;15.10;93.50;;;;;;5006224;28;20018;-68
2023/04/06 11:42:02;;;;;;;7.45;4.30;;;15.20;93.50;;;;;;5012820;28;20104;-68
2023/04/06 11:44:45;;;;;;;9.70;2.70;;;15.20;93.30;;;;;;5012432;28;20422;-68
2023/04/06 11:47:11;;;;;;;6.82;4.85;;;15.20;93.50;;;;;;5007819;28;20067;-68
2023/04/06 11:49:41;;;;;;;6.97;2.60;;;15.20;93.20;;;;;;5012566;28;20096;-68
2023/04/06 11:52:24;;;;;;;8.10;3.40;;;15.20;93.40;;;;;;5020290;28;20359;-70
2023/04/06 11:54:51;;;;;;;6.22;2.63;;;15.30;93.30;;;;;;5014845;28;20038;-69
2023/04/06 11:57:18;;;;;;;4.97;2.38;;;15.30;93.50;;;;;;5013525;28;20519;-69
2023/04/06 11:59:45;;;;;;;6.13;4.35;;;15.30;93.60;;;;;;5005210;28;20034;-69
2023/04/06 12:02:10;;;;;;;4.82;2.40;;;15.40;93.40;;;;;;5009326;28;20033;-70
2023/04/06 12:04:37;;;;;;;5.32;2.67;;;15.40;93.30;;;;;;5011494;28;20422;-68
2023/04/06 12:07:03;;;;;;;4.65;2.75;;;15.30;93.40;;;;;;5013453;28;20510;-71
2023/04/06 12:09:29;;;;;;;4.20;2.30;;;15.40;93.30;;;;;;5009735;28;20378;-71
2023/04/06 12:11:55;;;;;;;9.93;3.30;;;15.40;93.30;;;;;;5018165;28;20432;-71
2023/04/06 12:14:22;;;;;;;9.15;2.92;;;15.50;93.00;;;;;;5002370;28;20104;-69
2023/04/06 12:16:47;;;;;;;11.15;2.85;;;15.50;92.80;;;;;;5012367;28;20057;-70
2023/04/06 12:19:13;;;;;;;6.80;2.55;;;15.50;92.70;;;;;;5012359;28;20338;-70
2023/04/06 12:21:40;;;;;;;4.15;3.00;;;15.60;92.70;;;;;;5012277;28;20021;-70
2023/04/06 12:24:06;;;;;;;3.85;2.15;;;15.60;92.50;;;;;;4993046;28;20029;-68
2023/04/06 12:26:32;;;;;;;6.30;2.80;;;15.50;92.70;;;;;;5012280;28;20030;-68
2023/04/06 12:29:06;;;;;;;5.07;3.28;;;15.50;92.60;;;;;;5009941;28;20026;-68
2023/04/06 12:31:34;;;;;;;6.55;3.05;;;15.50;92.70;;;;;;5010346;28;20080;-71